sensor_id;sensor_type;location;lat;lon;timestamp;P1;durP1;ratioP1;P2;durP2;ratioP2
35380;SDS011;21486;51.916;8.378;2023-04-25T00:01:35;25.50;;;7.53;;
35380;SDS011;21486;51.916;8.378;2023-04-25T00:04:02;24.38;;;8.00;;
35380;SDS011;21486;51.916;8.378;2023-04-25T00:06:28;20.38;;;7.63;;
35380;SDS011;21486;51.916;8.378;2023-04-25T00:08:56;28.08;;;7.80;;
35380;SDS011;21486;51.916;8.378;2023-04-25T00:11:22;24.77;;;7.80;;
35380;SDS011;21486;51.916;8.378;2023-04-25T00:13:48;26.48;;;7.63;;
35380;SDS011;21486;51.916;8.378;2023-04-25T00:16:15;23.90;;;7.93;;
35380;SDS011;21486;51.916;8.378;2023-04-25T00:18:41;29.80;;;9.23;;
35380;SDS011;21486;51.916;8.378;2023-04-25T00:21:07;26.15;;;8.23;;
35380;SDS011;21486;51.916;8.378;2023-04-25T00:23:33;25.60;;;7.15;;
35380;SDS011;21486;51.916;8.378;2023-04-25T00:26:01;26.23;;;7.38;;
35380;SDS011;21486;51.916;8.378;2023-04-25T00:28:27;19.10;;;7.43;;
35380;SDS011;21486;51.916;8.378;2023-04-25T00:33:04;28.10;;;7.85;;
35380;SDS011;21486;51.916;8.378;2023-04-25T00:35:29;25.97;;;8.27;;
35380;SDS011;21486;51.916;8.378;2023-04-25T00:37:55;30.60;;;8.03;;
35380;SDS011;21486;51.916;8.378;2023-04-25T00:40:20;23.27;;;8.30;;
35380;SDS011;21486;51.916;8.378;2023-04-25T00:42:46;25.17;;;8.25;;
35380;SDS011;21486;51.916;8.378;2023-04-25T00:45:12;28.15;;;8.38;;
35380;SDS011;21486;51.916;8.378;2023-04-25T00:47:40;26.17;;;8.20;;
35380;SDS011;21486;51.916;8.378;2023-04-25T00:50:06;26.23;;;8.63;;
35380;SDS011;21486;51.916;8.378;2023-04-25T00:52:32;21.95;;;8.38;;
35380;SDS011;21486;51.916;8.378;2023-04-25T00:54:58;24.30;;;8.80;;
35380;SDS011;21486;51.916;8.378;2023-04-25T00:57:24;30.88;;;8.30;;
35380;SDS011;21486;51.916;8.378;2023-04-25T00:59:50;26.23;;;8.53;;
35380;SDS011;21486;51.916;8.378;2023-04-25T01:02:17;29.02;;;8.95;;
35380;SDS011;21486;51.916;8.378;2023-04-25T01:04:43;21.40;;;8.73;;
35380;SDS011;21486;51.916;8.378;2023-04-25T01:07:09;31.10;;;9.30;;
35380;SDS011;21486;51.916;8.378;2023-04-25T01:09:35;25.02;;;8.85;;
35380;SDS011;21486;51.916;8.378;2023-04-25T01:12:00;24.05;;;9.38;;
35380;SDS011;21486;51.916;8.378;2023-04-25T01:14:27;24.25;;;9.07;;
35380;SDS011;21486;51.916;8.378;2023-04-25T01:16:54;26.67;;;9.45;;
35380;SDS011;21486;51.916;8.378;2023-04-25T01:19:19;31.55;;;10.02;;
35380;SDS011;21486;51.916;8.378;2023-04-25T01:21:45;23.55;;;8.55;;
35380;SDS011;21486;51.916;8.378;2023-04-25T01:24:11;24.27;;;9.48;;
35380;SDS011;21486;51.916;8.378;2023-04-25T01:26:37;25.42;;;9.65;;
35380;SDS011;21486;51.916;8.378;2023-04-25T01:29:04;29.65;;;10.68;;
35380;SDS011;21486;51.916;8.378;2023-04-25T01:31:31;24.00;;;10.85;;
35380;SDS011;21486;51.916;8.378;2023-04-25T01:33:57;28.85;;;10.57;;
35380;SDS011;21486;51.916;8.378;2023-04-25T01:36:23;25.58;;;9.85;;
35380;SDS011;21486;51.916;8.378;2023-04-25T01:38:49;28.40;;;9.75;;
35380;SDS011;21486;51.916;8.378;2023-04-25T01:41:15;25.27;;;9.52;;
35380;SDS011;21486;51.916;8.378;2023-04-25T01:43:42;31.58;;;10.45;;
35380;SDS011;21486;51.916;8.378;2023-04-25T01:46:08;28.63;;;9.98;;
35380;SDS011;21486;51.916;8.378;2023-04-25T01:48:35;27.45;;;11.02;;
35380;SDS011;21486;51.916;8.378;2023-04-25T01:51:00;29.38;;;10.13;;
35380;SDS011;21486;51.916;8.378;2023-04-25T01:53:26;25.75;;;9.40;;
35380;SDS011;21486;51.916;8.378;2023-04-25T01:55:52;28.40;;;10.10;;
35380;SDS011;21486;51.916;8.378;2023-04-25T01:58:17;26.30;;;11.52;;
35380;SDS011;21486;51.916;8.378;2023-04-25T02:00:43;24.10;;;10.45;;
35380;SDS011;21486;51.916;8.378;2023-04-25T02:03:09;28.90;;;10.55;;
35380;SDS011;21486;51.916;8.378;2023-04-25T02:05:35;23.07;;;11.03;;
35380;SDS011;21486;51.916;8.378;2023-04-25T02:08:02;26.30;;;11.07;;
35380;SDS011;21486;51.916;8.378;2023-04-25T02:10:29;24.73;;;10.13;;
35380;SDS011;21486;51.916;8.378;2023-04-25T02:12:55;26.10;;;10.53;;
35380;SDS011;21486;51.916;8.378;2023-04-25T02:15:22;31.65;;;11.65;;
35380;SDS011;21486;51.916;8.378;2023-04-25T02:17:48;25.88;;;11.02;;
35380;SDS011;21486;51.916;8.378;2023-04-25T02:20:13;27.25;;;10.82;;
35380;SDS011;21486;51.916;8.378;2023-04-25T02:22:40;25.35;;;9.98;;
35380;SDS011;21486;51.916;8.378;2023-04-25T02:25:07;27.20;;;10.95;;
35380;SDS011;21486;51.916;8.378;2023-04-25T02:27:34;28.42;;;10.50;;
35380;SDS011;21486;51.916;8.378;2023-04-25T02:29:59;23.80;;;10.48;;
35380;SDS011;21486;51.916;8.378;2023-04-25T02:32:25;32.40;;;10.95;;
35380;SDS011;21486;51.916;8.378;2023-04-25T02:34:51;28.40;;;10.80;;
35380;SDS011;21486;51.916;8.378;2023-04-25T02:37:17;31.67;;;11.53;;
35380;SDS011;21486;51.916;8.378;2023-04-25T02:39:43;31.37;;;11.73;;
35380;SDS011;21486;51.916;8.378;2023-04-25T02:42:08;26.03;;;10.80;;
35380;SDS011;21486;51.916;8.378;2023-04-25T02:44:34;31.03;;;11.90;;
35380;SDS011;21486;51.916;8.378;2023-04-25T02:46:59;25.40;;;10.83;;
35380;SDS011;21486;51.916;8.378;2023-04-25T02:49:25;25.30;;;10.52;;
35380;SDS011;21486;51.916;8.378;2023-04-25T02:51:50;23.50;;;10.20;;
35380;SDS011;21486;51.916;8.378;2023-04-25T02:54:16;22.60;;;10.43;;
35380;SDS011;21486;51.916;8.378;2023-04-25T02:56:41;26.80;;;9.97;;
35380;SDS011;21486;51.916;8.378;2023-04-25T02:59:07;26.60;;;11.17;;
35380;SDS011;21486;51.916;8.378;2023-04-25T03:01:32;28.33;;;10.83;;
35380;SDS011;21486;51.916;8.378;2023-04-25T03:03:58;26.07;;;10.90;;
35380;SDS011;21486;51.916;8.378;2023-04-25T03:06:24;23.25;;;10.70;;
35380;SDS011;21486;51.916;8.378;2023-04-25T03:08:49;22.17;;;10.85;;
35380;SDS011;21486;51.916;8.378;2023-04-25T03:11:15;24.75;;;10.57;;
35380;SDS011;21486;51.916;8.378;2023-04-25T03:13:40;26.38;;;10.75;;
35380;SDS011;21486;51.916;8.378;2023-04-25T03:16:06;26.77;;;11.05;;
35380;SDS011;21486;51.916;8.378;2023-04-25T03:18:32;28.95;;;10.55;;
35380;SDS011;21486;51.916;8.378;2023-04-25T03:20:57;25.87;;;10.90;;
35380;SDS011;21486;51.916;8.378;2023-04-25T03:23:23;27.10;;;10.57;;
35380;SDS011;21486;51.916;8.378;2023-04-25T03:25:48;28.13;;;10.03;;
35380;SDS011;21486;51.916;8.378;2023-04-25T03:28:14;32.77;;;11.63;;
35380;SDS011;21486;51.916;8.378;2023-04-25T03:30:40;31.67;;;10.47;;
35380;SDS011;21486;51.916;8.378;2023-04-25T03:33:05;29.27;;;10.10;;
35380;SDS011;21486;51.916;8.378;2023-04-25T03:35:31;33.97;;;11.55;;
35380;SDS011;21486;51.916;8.378;2023-04-25T03:37:56;29.45;;;10.80;;
35380;SDS011;21486;51.916;8.378;2023-04-25T03:40:22;33.00;;;10.00;;
35380;SDS011;21486;51.916;8.378;2023-04-25T03:42:47;33.33;;;10.23;;
35380;SDS011;21486;51.916;8.378;2023-04-25T03:45:13;30.03;;;9.13;;
35380;SDS011;21486;51.916;8.378;2023-04-25T03:47:38;31.60;;;9.97;;
35380;SDS011;21486;51.916;8.378;2023-04-25T03:50:04;33.35;;;9.10;;
35380;SDS011;21486;51.916;8.378;2023-04-25T03:52:30;33.55;;;9.05;;
35380;SDS011;21486;51.916;8.378;2023-04-25T03:54:56;37.33;;;10.20;;
35380;SDS011;21486;51.916;8.378;2023-04-25T03:57:21;31.30;;;8.97;;
35380;SDS011;21486;51.916;8.378;2023-04-25T03:59:47;36.50;;;9.20;;
35380;SDS011;21486;51.916;8.378;2023-04-25T04:02:12;40.65;;;9.70;;
35380;SDS011;21486;51.916;8.378;2023-04-25T04:04:38;34.45;;;8.77;;
35380;SDS011;21486;51.916;8.378;2023-04-25T04:07:03;35.83;;;8.80;;
35380;SDS011;21486;51.916;8.378;2023-04-25T04:09:29;43.03;;;10.17;;
35380;SDS011;21486;51.916;8.378;2023-04-25T04:11:54;30.00;;;7.93;;
35380;SDS011;21486;51.916;8.378;2023-04-25T04:14:20;31.57;;;7.43;;
35380;SDS011;21486;51.916;8.378;2023-04-25T04:16:46;34.47;;;8.37;;
35380;SDS011;21486;51.916;8.378;2023-04-25T04:19:11;39.40;;;9.43;;
35380;SDS011;21486;51.916;8.378;2023-04-25T04:21:37;35.70;;;8.37;;
35380;SDS011;21486;51.916;8.378;2023-04-25T04:24:02;26.97;;;7.60;;
35380;SDS011;21486;51.916;8.378;2023-04-25T04:26:28;30.77;;;8.23;;
35380;SDS011;21486;51.916;8.378;2023-04-25T04:28:54;40.40;;;9.27;;
35380;SDS011;21486;51.916;8.378;2023-04-25T04:31:20;33.88;;;8.00;;
35380;SDS011;21486;51.916;8.378;2023-04-25T04:33:46;39.92;;;8.27;;
35380;SDS011;21486;51.916;8.378;2023-04-25T04:36:12;24.15;;;8.15;;
35380;SDS011;21486;51.916;8.378;2023-04-25T04:38:38;34.10;;;8.80;;
35380;SDS011;21486;51.916;8.378;2023-04-25T04:41:05;38.08;;;8.45;;
35380;SDS011;21486;51.916;8.378;2023-04-25T04:43:30;33.23;;;7.50;;
35380;SDS011;21486;51.916;8.378;2023-04-25T04:45:58;35.88;;;8.90;;
35380;SDS011;21486;51.916;8.378;2023-04-25T04:48:25;39.03;;;7.93;;
35380;SDS011;21486;51.916;8.378;2023-04-25T04:50:51;34.67;;;7.72;;
35380;SDS011;21486;51.916;8.378;2023-04-25T04:53:16;35.40;;;8.50;;
35380;SDS011;21486;51.916;8.378;2023-04-25T04:55:42;36.93;;;8.30;;
35380;SDS011;21486;51.916;8.378;2023-04-25T04:58:07;40.67;;;8.23;;
35380;SDS011;21486;51.916;8.378;2023-04-25T05:00:33;27.77;;;8.27;;
35380;SDS011;21486;51.916;8.378;2023-04-25T05:02:59;33.73;;;8.27;;
35380;SDS011;21486;51.916;8.378;2023-04-25T05:05:24;37.63;;;8.03;;
35380;SDS011;21486;51.916;8.378;2023-04-25T05:07:50;26.93;;;7.00;;
35380;SDS011;21486;51.916;8.378;2023-04-25T05:10:19;36.38;;;7.45;;
35380;SDS011;21486;51.916;8.378;2023-04-25T05:12:45;43.38;;;7.50;;
35380;SDS011;21486;51.916;8.378;2023-04-25T05:15:11;36.17;;;7.88;;
35380;SDS011;21486;51.916;8.378;2023-04-25T05:17:37;32.22;;;7.55;;
35380;SDS011;21486;51.916;8.378;2023-04-25T05:20:04;36.72;;;7.57;;
35380;SDS011;21486;51.916;8.378;2023-04-25T05:22:30;32.03;;;7.47;;
35380;SDS011;21486;51.916;8.378;2023-04-25T05:24:56;29.97;;;7.03;;
35380;SDS011;21486;51.916;8.378;2023-04-25T05:27:21;30.30;;;6.87;;
35380;SDS011;21486;51.916;8.378;2023-04-25T05:29:47;39.23;;;7.30;;
35380;SDS011;21486;51.916;8.378;2023-04-25T05:32:12;29.65;;;7.97;;
35380;SDS011;21486;51.916;8.378;2023-04-25T05:34:38;36.35;;;7.85;;
35380;SDS011;21486;51.916;8.378;2023-04-25T05:37:04;33.95;;;7.80;;
35380;SDS011;21486;51.916;8.378;2023-04-25T05:39:30;27.42;;;7.43;;
35380;SDS011;21486;51.916;8.378;2023-04-25T05:41:55;29.10;;;7.30;;
35380;SDS011;21486;51.916;8.378;2023-04-25T05:44:21;26.77;;;6.57;;
35380;SDS011;21486;51.916;8.378;2023-04-25T05:46:46;28.97;;;7.13;;
35380;SDS011;21486;51.916;8.378;2023-04-25T05:49:12;27.58;;;6.95;;
35380;SDS011;21486;51.916;8.378;2023-04-25T05:51:37;30.63;;;6.77;;
35380;SDS011;21486;51.916;8.378;2023-04-25T05:54:03;37.10;;;7.43;;
35380;SDS011;21486;51.916;8.378;2023-04-25T05:56:28;29.85;;;6.72;;
35380;SDS011;21486;51.916;8.378;2023-04-25T05:58:54;26.27;;;6.68;;
35380;SDS011;21486;51.916;8.378;2023-04-25T06:01:20;25.05;;;7.07;;
35380;SDS011;21486;51.916;8.378;2023-04-25T06:03:46;27.60;;;6.10;;
35380;SDS011;21486;51.916;8.378;2023-04-25T06:06:12;31.83;;;7.20;;
35380;SDS011;21486;51.916;8.378;2023-04-25T06:08:38;33.13;;;7.23;;
35380;SDS011;21486;51.916;8.378;2023-04-25T06:11:03;27.33;;;6.47;;
35380;SDS011;21486;51.916;8.378;2023-04-25T06:13:29;33.73;;;7.23;;
35380;SDS011;21486;51.916;8.378;2023-04-25T06:15:55;28.73;;;6.47;;
35380;SDS011;21486;51.916;8.378;2023-04-25T06:18:20;28.30;;;6.00;;
35380;SDS011;21486;51.916;8.378;2023-04-25T06:20:46;34.30;;;6.45;;
35380;SDS011;21486;51.916;8.378;2023-04-25T06:23:11;28.48;;;5.95;;
35380;SDS011;21486;51.916;8.378;2023-04-25T06:25:37;22.93;;;6.07;;
35380;SDS011;21486;51.916;8.378;2023-04-25T06:28:02;26.30;;;5.67;;
35380;SDS011;21486;51.916;8.378;2023-04-25T06:30:28;24.50;;;5.80;;
35380;SDS011;21486;51.916;8.378;2023-04-25T06:32:54;29.25;;;5.97;;
35380;SDS011;21486;51.916;8.378;2023-04-25T06:35:20;28.87;;;6.10;;
35380;SDS011;21486;51.916;8.378;2023-04-25T06:37:45;27.03;;;5.47;;
35380;SDS011;21486;51.916;8.378;2023-04-25T06:40:11;27.10;;;5.53;;
35380;SDS011;21486;51.916;8.378;2023-04-25T06:42:36;29.80;;;5.53;;
35380;SDS011;21486;51.916;8.378;2023-04-25T06:45:02;32.85;;;5.63;;
35380;SDS011;21486;51.916;8.378;2023-04-25T06:47:28;26.98;;;5.53;;
35380;SDS011;21486;51.916;8.378;2023-04-25T06:49:54;25.70;;;5.47;;
35380;SDS011;21486;51.916;8.378;2023-04-25T06:52:20;25.03;;;5.37;;
35380;SDS011;21486;51.916;8.378;2023-04-25T06:54:46;27.83;;;5.23;;
35380;SDS011;21486;51.916;8.378;2023-04-25T06:57:11;34.63;;;5.80;;
35380;SDS011;21486;51.916;8.378;2023-04-25T06:59:37;25.87;;;5.60;;
35380;SDS011;21486;51.916;8.378;2023-04-25T07:02:02;25.00;;;5.57;;
35380;SDS011;21486;51.916;8.378;2023-04-25T07:04:28;30.00;;;5.22;;
35380;SDS011;21486;51.916;8.378;2023-04-25T07:06:55;28.20;;;5.88;;
35380;SDS011;21486;51.916;8.378;2023-04-25T07:09:21;26.52;;;5.85;;
35380;SDS011;21486;51.916;8.378;2023-04-25T07:11:46;26.02;;;5.15;;
35380;SDS011;21486;51.916;8.378;2023-04-25T07:14:12;28.70;;;5.53;;
35380;SDS011;21486;51.916;8.378;2023-04-25T07:16:37;24.17;;;4.73;;
35380;SDS011;21486;51.916;8.378;2023-04-25T07:19:03;28.83;;;5.10;;
35380;SDS011;21486;51.916;8.378;2023-04-25T07:21:28;24.27;;;5.03;;
35380;SDS011;21486;51.916;8.378;2023-04-25T07:23:56;24.05;;;5.10;;
35380;SDS011;21486;51.916;8.378;2023-04-25T07:26:22;29.52;;;4.75;;
35380;SDS011;21486;51.916;8.378;2023-04-25T07:28:47;29.30;;;4.50;;
35380;SDS011;21486;51.916;8.378;2023-04-25T07:31:15;16.60;;;4.22;;
35380;SDS011;21486;51.916;8.378;2023-04-25T07:33:43;23.60;;;4.60;;
35380;SDS011;21486;51.916;8.378;2023-04-25T07:36:11;27.38;;;5.13;;
35380;SDS011;21486;51.916;8.378;2023-04-25T07:38:38;24.23;;;4.95;;
35380;SDS011;21486;51.916;8.378;2023-04-25T07:41:03;19.95;;;4.50;;
35380;SDS011;21486;51.916;8.378;2023-04-25T07:43:29;25.55;;;4.50;;
35380;SDS011;21486;51.916;8.378;2023-04-25T07:45:55;24.83;;;4.83;;
35380;SDS011;21486;51.916;8.378;2023-04-25T07:48:21;24.27;;;5.13;;
35380;SDS011;21486;51.916;8.378;2023-04-25T07:50:47;29.20;;;5.35;;
35380;SDS011;21486;51.916;8.378;2023-04-25T07:53:13;25.95;;;5.43;;
35380;SDS011;21486;51.916;8.378;2023-04-25T07:55:38;20.13;;;4.55;;
35380;SDS011;21486;51.916;8.378;2023-04-25T07:58:07;19.23;;;4.55;;
35380;SDS011;21486;51.916;8.378;2023-04-25T08:00:33;30.27;;;5.03;;
35380;SDS011;21486;51.916;8.378;2023-04-25T08:02:59;20.05;;;4.13;;
35380;SDS011;21486;51.916;8.378;2023-04-25T08:05:25;26.67;;;4.70;;
35380;SDS011;21486;51.916;8.378;2023-04-25T08:07:50;23.38;;;4.80;;
35380;SDS011;21486;51.916;8.378;2023-04-25T08:10:16;19.92;;;4.00;;
35380;SDS011;21486;51.916;8.378;2023-04-25T08:12:41;20.03;;;4.33;;
35380;SDS011;21486;51.916;8.378;2023-04-25T08:15:07;23.90;;;5.07;;
35380;SDS011;21486;51.916;8.378;2023-04-25T08:17:34;18.40;;;3.90;;
35380;SDS011;21486;51.916;8.378;2023-04-25T08:19:59;20.38;;;4.38;;
35380;SDS011;21486;51.916;8.378;2023-04-25T08:22:25;19.52;;;3.58;;
35380;SDS011;21486;51.916;8.378;2023-04-25T08:24:50;21.53;;;4.00;;
35380;SDS011;21486;51.916;8.378;2023-04-25T08:27:16;17.87;;;4.17;;
35380;SDS011;21486;51.916;8.378;2023-04-25T08:29:43;18.77;;;3.58;;
35380;SDS011;21486;51.916;8.378;2023-04-25T08:32:08;18.47;;;3.57;;
35380;SDS011;21486;51.916;8.378;2023-04-25T08:34:34;17.08;;;3.70;;
35380;SDS011;21486;51.916;8.378;2023-04-25T08:36:59;18.73;;;3.80;;
35380;SDS011;21486;51.916;8.378;2023-04-25T08:39:25;19.27;;;3.63;;
35380;SDS011;21486;51.916;8.378;2023-04-25T08:41:51;18.23;;;3.47;;
35380;SDS011;21486;51.916;8.378;2023-04-25T08:44:17;13.90;;;3.33;;
35380;SDS011;21486;51.916;8.378;2023-04-25T08:46:45;18.23;;;3.25;;
35380;SDS011;21486;51.916;8.378;2023-04-25T08:49:14;17.92;;;3.35;;
35380;SDS011;21486;51.916;8.378;2023-04-25T08:51:45;19.58;;;3.47;;
35380;SDS011;21486;51.916;8.378;2023-04-25T08:54:12;11.90;;;3.05;;
35380;SDS011;21486;51.916;8.378;2023-04-25T08:56:48;15.00;;;3.13;;
35380;SDS011;21486;51.916;8.378;2023-04-25T08:59:14;18.15;;;3.25;;
35380;SDS011;21486;51.916;8.378;2023-04-25T09:01:39;14.17;;;3.10;;
35380;SDS011;21486;51.916;8.378;2023-04-25T09:04:05;17.23;;;3.05;;
35380;SDS011;21486;51.916;8.378;2023-04-25T09:06:31;14.57;;;3.08;;
35380;SDS011;21486;51.916;8.378;2023-04-25T09:09:05;13.55;;;2.53;;
35380;SDS011;21486;51.916;8.378;2023-04-25T09:11:32;11.87;;;3.10;;
35380;SDS011;21486;51.916;8.378;2023-04-25T09:14:18;12.65;;;2.60;;
35380;SDS011;21486;51.916;8.378;2023-04-25T09:19:31;12.35;;;3.15;;
35380;SDS011;21486;51.916;8.378;2023-04-25T09:22:01;13.02;;;2.55;;
35380;SDS011;21486;51.916;8.378;2023-04-25T09:27:04;13.43;;;2.70;;
35380;SDS011;21486;51.916;8.378;2023-04-25T09:29:34;13.27;;;2.55;;
35380;SDS011;21486;51.916;8.378;2023-04-25T09:32:10;9.48;;;2.40;;
35380;SDS011;21486;51.916;8.378;2023-04-25T09:34:40;13.85;;;2.45;;
35380;SDS011;21486;51.916;8.378;2023-04-25T09:37:07;9.60;;;2.30;;
35380;SDS011;21486;51.916;8.378;2023-04-25T09:39:39;12.63;;;2.53;;
35380;SDS011;21486;51.916;8.378;2023-04-25T09:42:04;12.10;;;2.50;;
35380;SDS011;21486;51.916;8.378;2023-04-25T09:44:30;11.70;;;2.63;;
35380;SDS011;21486;51.916;8.378;2023-04-25T09:46:56;13.77;;;2.25;;
35380;SDS011;21486;51.916;8.378;2023-04-25T09:49:22;7.53;;;1.90;;
35380;SDS011;21486;51.916;8.378;2023-04-25T09:51:56;10.82;;;2.13;;
35380;SDS011;21486;51.916;8.378;2023-04-25T09:54:23;8.20;;;2.40;;
35380;SDS011;21486;51.916;8.378;2023-04-25T09:56:51;9.82;;;2.05;;
35380;SDS011;21486;51.916;8.378;2023-04-25T09:59:21;12.57;;;2.70;;
35380;SDS011;21486;51.916;8.378;2023-04-25T10:01:50;12.43;;;2.20;;
35380;SDS011;21486;51.916;8.378;2023-04-25T10:04:19;11.35;;;2.65;;
35380;SDS011;21486;51.916;8.378;2023-04-25T10:06:47;7.93;;;2.13;;
35380;SDS011;21486;51.916;8.378;2023-04-25T10:09:14;11.95;;;2.35;;
35380;SDS011;21486;51.916;8.378;2023-04-25T10:11:40;13.98;;;2.47;;
35380;SDS011;21486;51.916;8.378;2023-04-25T10:14:06;8.50;;;2.42;;
35380;SDS011;21486;51.916;8.378;2023-04-25T10:16:31;11.38;;;2.60;;
35380;SDS011;21486;51.916;8.378;2023-04-25T10:18:58;11.03;;;2.60;;
35380;SDS011;21486;51.916;8.378;2023-04-25T10:21:23;13.07;;;2.43;;
35380;SDS011;21486;51.916;8.378;2023-04-25T10:23:52;11.60;;;2.60;;
35380;SDS011;21486;51.916;8.378;2023-04-25T10:26:18;12.63;;;2.40;;
35380;SDS011;21486;51.916;8.378;2023-04-25T10:28:55;8.90;;;2.33;;
35380;SDS011;21486;51.916;8.378;2023-04-25T10:31:24;19.63;;;2.78;;
35380;SDS011;21486;51.916;8.378;2023-04-25T10:33:50;12.43;;;2.47;;
35380;SDS011;21486;51.916;8.378;2023-04-25T10:36:19;13.03;;;3.07;;
35380;SDS011;21486;51.916;8.378;2023-04-25T10:38:47;13.32;;;3.20;;
35380;SDS011;21486;51.916;8.378;2023-04-25T10:41:17;12.13;;;2.85;;
35380;SDS011;21486;51.916;8.378;2023-04-25T10:43:46;9.50;;;2.25;;
35380;SDS011;21486;51.916;8.378;2023-04-25T10:46:22;7.05;;;2.03;;
35380;SDS011;21486;51.916;8.378;2023-04-25T10:48:52;8.63;;;2.07;;
35380;SDS011;21486;51.916;8.378;2023-04-25T10:53:56;9.65;;;2.20;;
35380;SDS011;21486;51.916;8.378;2023-04-25T10:56:33;7.90;;;2.08;;
35380;SDS011;21486;51.916;8.378;2023-04-25T10:59:08;7.35;;;2.00;;
35380;SDS011;21486;51.916;8.378;2023-04-25T11:01:45;8.63;;;2.50;;
35380;SDS011;21486;51.916;8.378;2023-04-25T11:09:28;7.57;;;2.38;;
35380;SDS011;21486;51.916;8.378;2023-04-25T11:11:55;11.63;;;2.40;;
35380;SDS011;21486;51.916;8.378;2023-04-25T11:14:21;6.10;;;1.98;;
35380;SDS011;21486;51.916;8.378;2023-04-25T11:16:47;10.90;;;2.60;;
35380;SDS011;21486;51.916;8.378;2023-04-25T11:19:19;10.55;;;2.22;;
35380;SDS011;21486;51.916;8.378;2023-04-25T11:21:45;10.43;;;2.50;;
35380;SDS011;21486;51.916;8.378;2023-04-25T11:24:11;11.73;;;2.87;;
35380;SDS011;21486;51.916;8.378;2023-04-25T11:26:36;9.03;;;2.33;;
35380;SDS011;21486;51.916;8.378;2023-04-25T11:29:02;9.65;;;2.10;;
35380;SDS011;21486;51.916;8.378;2023-04-25T11:31:28;10.83;;;2.57;;
35380;SDS011;21486;51.916;8.378;2023-04-25T11:33:56;9.15;;;2.30;;
35380;SDS011;21486;51.916;8.378;2023-04-25T11:36:23;9.85;;;2.33;;
35380;SDS011;21486;51.916;8.378;2023-04-25T11:38:50;10.68;;;2.05;;
35380;SDS011;21486;51.916;8.378;2023-04-25T11:41:16;12.35;;;2.35;;
35380;SDS011;21486;51.916;8.378;2023-04-25T11:43:43;8.30;;;2.08;;
35380;SDS011;21486;51.916;8.378;2023-04-25T11:46:08;9.50;;;2.25;;
35380;SDS011;21486;51.916;8.378;2023-04-25T11:48:40;8.35;;;2.03;;
35380;SDS011;21486;51.916;8.378;2023-04-25T11:51:06;7.40;;;1.90;;
35380;SDS011;21486;51.916;8.378;2023-04-25T11:53:32;10.18;;;2.20;;
35380;SDS011;21486;51.916;8.378;2023-04-25T11:55:58;5.95;;;2.10;;
35380;SDS011;21486;51.916;8.378;2023-04-25T11:58:25;8.15;;;1.90;;
35380;SDS011;21486;51.916;8.378;2023-04-25T12:00:51;6.78;;;1.83;;
35380;SDS011;21486;51.916;8.378;2023-04-25T12:03:17;7.53;;;2.13;;
35380;SDS011;21486;51.916;8.378;2023-04-25T12:05:44;10.48;;;2.20;;
35380;SDS011;21486;51.916;8.378;2023-04-25T12:08:14;7.33;;;1.97;;
35380;SDS011;21486;51.916;8.378;2023-04-25T12:10:41;7.38;;;1.70;;
35380;SDS011;21486;51.916;8.378;2023-04-25T12:13:17;7.07;;;1.58;;
35380;SDS011;21486;51.916;8.378;2023-04-25T12:15:47;4.22;;;1.42;;
35380;SDS011;21486;51.916;8.378;2023-04-25T12:18:13;8.30;;;1.90;;
35380;SDS011;21486;51.916;8.378;2023-04-25T12:20:39;4.30;;;1.55;;
35380;SDS011;21486;51.916;8.378;2023-04-25T12:23:06;7.57;;;2.30;;
35380;SDS011;21486;51.916;8.378;2023-04-25T12:25:40;8.77;;;1.83;;
35380;SDS011;21486;51.916;8.378;2023-04-25T12:33:29;9.17;;;1.80;;
35380;SDS011;21486;51.916;8.378;2023-04-25T12:35:57;5.28;;;1.48;;
35380;SDS011;21486;51.916;8.378;2023-04-25T12:38:28;5.82;;;1.70;;
35380;SDS011;21486;51.916;8.378;2023-04-25T12:40:55;5.43;;;1.70;;
35380;SDS011;21486;51.916;8.378;2023-04-25T12:43:21;6.90;;;1.70;;
35380;SDS011;21486;51.916;8.378;2023-04-25T12:45:51;7.65;;;1.67;;
35380;SDS011;21486;51.916;8.378;2023-04-25T12:48:18;7.22;;;1.77;;
35380;SDS011;21486;51.916;8.378;2023-04-25T12:50:44;9.90;;;1.98;;
35380;SDS011;21486;51.916;8.378;2023-04-25T12:53:13;9.88;;;2.00;;
35380;SDS011;21486;51.916;8.378;2023-04-25T12:55:38;5.10;;;1.45;;
35380;SDS011;21486;51.916;8.378;2023-04-25T12:58:04;7.00;;;1.80;;
35380;SDS011;21486;51.916;8.378;2023-04-25T13:00:29;5.27;;;1.67;;
35380;SDS011;21486;51.916;8.378;2023-04-25T13:02:56;4.30;;;1.87;;
35380;SDS011;21486;51.916;8.378;2023-04-25T13:05:22;8.10;;;1.90;;
35380;SDS011;21486;51.916;8.378;2023-04-25T13:07:47;5.32;;;1.98;;
35380;SDS011;21486;51.916;8.378;2023-04-25T13:10:13;5.75;;;1.70;;
35380;SDS011;21486;51.916;8.378;2023-04-25T13:12:38;7.40;;;1.70;;
35380;SDS011;21486;51.916;8.378;2023-04-25T13:15:04;6.30;;;2.00;;
35380;SDS011;21486;51.916;8.378;2023-04-25T13:17:30;5.82;;;1.50;;
35380;SDS011;21486;51.916;8.378;2023-04-25T13:19:56;6.23;;;1.57;;
35380;SDS011;21486;51.916;8.378;2023-04-25T13:22:21;6.33;;;2.13;;
35380;SDS011;21486;51.916;8.378;2023-04-25T13:24:46;3.85;;;1.30;;
35380;SDS011;21486;51.916;8.378;2023-04-25T13:27:12;5.10;;;1.50;;
35380;SDS011;21486;51.916;8.378;2023-04-25T13:29:38;5.43;;;1.50;;
35380;SDS011;21486;51.916;8.378;2023-04-25T13:32:05;6.85;;;1.80;;
35380;SDS011;21486;51.916;8.378;2023-04-25T13:34:31;6.18;;;1.52;;
35380;SDS011;21486;51.916;8.378;2023-04-25T13:36:57;6.13;;;1.60;;
35380;SDS011;21486;51.916;8.378;2023-04-25T13:39:25;6.40;;;1.53;;
35380;SDS011;21486;51.916;8.378;2023-04-25T13:41:51;7.93;;;2.03;;
35380;SDS011;21486;51.916;8.378;2023-04-25T13:44:16;6.37;;;1.53;;
35380;SDS011;21486;51.916;8.378;2023-04-25T13:46:42;6.82;;;1.67;;
35380;SDS011;21486;51.916;8.378;2023-04-25T13:49:07;6.13;;;1.60;;
35380;SDS011;21486;51.916;8.378;2023-04-25T13:51:33;6.20;;;1.50;;
35380;SDS011;21486;51.916;8.378;2023-04-25T13:53:59;6.13;;;1.60;;
35380;SDS011;21486;51.916;8.378;2023-04-25T13:56:24;7.13;;;1.60;;
35380;SDS011;21486;51.916;8.378;2023-04-25T13:58:50;5.97;;;1.70;;
35380;SDS011;21486;51.916;8.378;2023-04-25T14:01:19;7.07;;;1.88;;
35380;SDS011;21486;51.916;8.378;2023-04-25T14:03:46;8.00;;;1.70;;
35380;SDS011;21486;51.916;8.378;2023-04-25T14:06:11;8.27;;;1.80;;
35380;SDS011;21486;51.916;8.378;2023-04-25T14:08:37;7.05;;;1.95;;
35380;SDS011;21486;51.916;8.378;2023-04-25T14:11:03;8.02;;;2.20;;
35380;SDS011;21486;51.916;8.378;2023-04-25T14:13:29;7.43;;;2.25;;
35380;SDS011;21486;51.916;8.378;2023-04-25T14:15:55;8.93;;;1.95;;
35380;SDS011;21486;51.916;8.378;2023-04-25T14:18:20;5.85;;;1.98;;
35380;SDS011;21486;51.916;8.378;2023-04-25T14:20:46;6.47;;;2.05;;
35380;SDS011;21486;51.916;8.378;2023-04-25T14:23:12;8.73;;;2.10;;
35380;SDS011;21486;51.916;8.378;2023-04-25T14:25:37;5.13;;;1.83;;
35380;SDS011;21486;51.916;8.378;2023-04-25T14:28:03;6.07;;;2.37;;
35380;SDS011;21486;51.916;8.378;2023-04-25T14:30:28;10.63;;;2.43;;
35380;SDS011;21486;51.916;8.378;2023-04-25T14:32:54;8.87;;;2.23;;
35380;SDS011;21486;51.916;8.378;2023-04-25T14:35:20;9.20;;;2.20;;
35380;SDS011;21486;51.916;8.378;2023-04-25T14:37:46;8.20;;;2.40;;
35380;SDS011;21486;51.916;8.378;2023-04-25T14:40:12;6.20;;;2.33;;
35380;SDS011;21486;51.916;8.378;2023-04-25T14:42:40;6.95;;;2.20;;
35380;SDS011;21486;51.916;8.378;2023-04-25T14:45:05;8.15;;;2.40;;
35380;SDS011;21486;51.916;8.378;2023-04-25T14:47:33;8.55;;;3.00;;
35380;SDS011;21486;51.916;8.378;2023-04-25T14:50:01;8.95;;;2.80;;
35380;SDS011;21486;51.916;8.378;2023-04-25T14:52:27;10.93;;;2.67;;